TimeCST,TemperatureF,Dew PointF,Humidity,Sea Level PressureIn,VisibilityMPH,Wind Direction,Wind SpeedMPH,Gust SpeedMPH,PrecipitationIn,Events,Conditions,WindDirDegrees,DateUTC
12:56 AM,48.9,37.9,66,29.96,10.0,South,12.7,-,N/A,,Mostly Cloudy,170,2013-03-04 06:56:00
1:56 AM,48.9,39.9,71,29.94,10.0,South,10.4,-,N/A,,Overcast,170,2013-03-04 07:56:00
2:56 AM,48.9,41.0,74,29.91,10.0,South,10.4,-,N/A,,Mostly Cloudy,170,2013-03-04 08:56:00
3:56 AM,50.0,43.0,77,29.86,10.0,South,15.0,23.0,N/A,,Mostly Cloudy,180,2013-03-04 09:56:00
4:56 AM,52.0,45.0,77,29.86,10.0,South,12.7,-,N/A,,Overcast,170,2013-03-04 10:56:00
5:56 AM,52.0,46.0,80,29.86,10.0,South,16.1,23.0,N/A,,Overcast,180,2013-03-04 11:56:00
6:56 AM,53.1,46.9,80,29.86,10.0,South,16.1,21.9,N/A,,Mostly Cloudy,180,2013-03-04 12:56:00
7:56 AM,55.9,48.0,75,29.87,10.0,South,11.5,-,N/A,,Overcast,190,2013-03-04 13:56:00
8:56 AM,59.0,50.0,72,29.86,10.0,South,16.1,27.6,N/A,,Overcast,190,2013-03-04 14:56:00
9:56 AM,64.9,52.0,63,29.80,10.0,South,21.9,34.5,N/A,,Mostly Cloudy,190,2013-03-04 15:56:00
10:56 AM,68.0,52.0,56,29.79,10.0,SSW,19.6,29.9,N/A,,Mostly Cloudy,200,2013-03-04 16:56:00
11:56 AM,73.4,51.8,47,29.77,10.0,SSW,21.9,32.2,N/A,,Mostly Cloudy,200,2013-03-04 17:56:00
12:56 PM,73.0,52.0,48,29.75,10.0,SSW,15.0,31.1,N/A,,Mostly Cloudy,200,2013-03-04 18:56:00
1:56 PM,75.9,52.0,43,29.70,10.0,SSW,15.0,32.2,N/A,,Mostly Cloudy,200,2013-03-04 19:56:00
2:56 PM,77.0,51.1,40,29.69,10.0,SSW,15.0,29.9,N/A,,Mostly Cloudy,210,2013-03-04 20:56:00
3:56 PM,77.0,51.1,40,29.69,10.0,SSW,19.6,26.5,N/A,,Overcast,200,2013-03-04 21:56:00
4:56 PM,75.0,54.0,48,29.69,10.0,South,18.4,26.5,N/A,,Mostly Cloudy,190,2013-03-04 22:56:00
5:56 PM,72.0,55.9,57,29.69,10.0,South,15.0,-,N/A,,Mostly Cloudy,180,2013-03-04 23:56:00
6:56 PM,69.1,55.9,63,29.71,10.0,South,12.7,-,N/A,,Mostly Cloudy,180,2013-03-05 00:56:00
7:56 PM,69.1,57.0,65,29.72,10.0,South,11.5,19.6,N/A,,Scattered Clouds,190,2013-03-05 01:56:00
8:56 PM,66.9,57.0,70,29.73,10.0,South,13.8,-,N/A,,Scattered Clouds,180,2013-03-05 02:56:00
9:56 PM,66.0,57.0,73,29.74,10.0,South,13.8,23.0,N/A,,Mostly Cloudy,190,2013-03-05 03:56:00
10:56 PM,64.9,57.9,78,29.74,10.0,South,12.7,-,N/A,,Mostly Cloudy,190,2013-03-05 04:56:00
11:56 PM,64.9,57.9,78,29.74,10.0,SSW,17.3,27.6,N/A,,Mostly Cloudy,200,2013-03-05 05:56:00